createdAt,value
2017-12-15T00:00:49.934Z,3.83
2017-12-15T00:03:17.394Z,4.17
2017-12-15T00:05:44.867Z,5.27
2017-12-15T00:08:12.326Z,4.53
2017-12-15T00:10:39.806Z,4.00
2017-12-15T00:13:07.285Z,4.17
2017-12-15T00:15:34.780Z,4.03
2017-12-15T00:18:02.265Z,4.07
2017-12-15T00:20:29.725Z,3.70
2017-12-15T00:22:57.205Z,3.87
2017-12-15T00:25:24.709Z,3.83
2017-12-15T00:27:52.979Z,4.23
2017-12-15T00:30:20.443Z,4.13
2017-12-15T00:32:47.936Z,4.00
2017-12-15T00:35:15.416Z,3.40
2017-12-15T00:37:43.246Z,3.60
2017-12-15T00:40:10.724Z,3.20
2017-12-15T00:42:38.227Z,3.10
2017-12-15T00:45:05.724Z,3.37
2017-12-15T00:47:33.197Z,3.33
2017-12-15T00:50:00.657Z,3.40
2017-12-15T00:52:28.153Z,3.40
2017-12-15T00:54:55.635Z,3.60
2017-12-15T00:57:23.134Z,3.50
2017-12-15T00:59:50.601Z,3.60
2017-12-15T01:02:18.059Z,3.33
2017-12-15T01:04:45.557Z,4.20
2017-12-15T01:07:13.038Z,3.53
2017-12-15T01:09:40.506Z,4.00
2017-12-15T01:12:07.961Z,3.90
2017-12-15T01:14:35.433Z,3.60
2017-12-15T01:17:03.512Z,3.10
2017-12-15T01:19:31.144Z,3.37
2017-12-15T01:21:58.648Z,3.17
2017-12-15T01:24:26.141Z,3.30
2017-12-15T01:26:53.642Z,3.67
2017-12-15T01:29:21.135Z,3.40
2017-12-15T01:31:48.622Z,3.50
2017-12-15T01:34:16.116Z,3.13
2017-12-15T01:36:43.604Z,3.10
2017-12-15T01:39:11.122Z,3.73
2017-12-15T01:41:38.638Z,3.03
2017-12-15T01:44:06.143Z,3.63
2017-12-15T01:46:33.599Z,3.47
2017-12-15T01:49:01.058Z,3.50
2017-12-15T01:51:28.553Z,3.33
2017-12-15T01:53:56.040Z,3.47
2017-12-15T01:56:23.534Z,3.47
2017-12-15T01:58:50.997Z,3.57
2017-12-15T02:01:18.481Z,3.60
2017-12-15T02:03:45.941Z,3.57
2017-12-15T02:06:13.398Z,3.13
2017-12-15T02:08:40.889Z,3.40
2017-12-15T02:11:08.393Z,3.10
2017-12-15T02:13:35.874Z,3.50
2017-12-15T02:16:03.330Z,3.43
2017-12-15T02:18:30.811Z,3.40
2017-12-15T02:20:58.295Z,3.23
2017-12-15T02:23:25.766Z,3.90
2017-12-15T02:25:53.254Z,4.20
2017-12-15T02:28:20.749Z,4.43
2017-12-15T02:30:48.218Z,4.50
2017-12-15T02:33:15.737Z,3.80
2017-12-15T02:35:43.228Z,4.67
2017-12-15T02:38:10.713Z,4.90
2017-12-15T02:40:38.206Z,4.43
2017-12-15T02:43:05.686Z,3.83
2017-12-15T02:45:33.192Z,4.87
2017-12-15T02:48:00.679Z,3.60
2017-12-15T02:50:28.154Z,3.20
2017-12-15T02:52:55.614Z,3.40
2017-12-15T02:55:23.082Z,3.07
2017-12-15T02:57:49.840Z,3.47
2017-12-15T03:00:17.785Z,3.77
2017-12-15T03:02:45.270Z,2.87
2017-12-15T03:05:12.730Z,3.27
2017-12-15T03:07:40.229Z,3.17
2017-12-15T03:10:07.722Z,3.20
2017-12-15T03:12:35.220Z,2.83
2017-12-15T03:15:02.697Z,3.40
2017-12-15T03:17:30.158Z,2.90
2017-12-15T03:19:57.654Z,3.33
2017-12-15T03:22:25.114Z,3.03
2017-12-15T03:24:52.608Z,3.43
2017-12-15T03:27:20.100Z,3.70
2017-12-15T03:29:47.582Z,3.73
2017-12-15T03:32:15.077Z,3.63
2017-12-15T03:34:42.555Z,3.87
2017-12-15T03:37:10.069Z,3.50
2017-12-15T03:39:37.546Z,4.00
2017-12-15T03:42:05.028Z,3.70
2017-12-15T03:44:32.501Z,3.87
2017-12-15T03:46:59.950Z,4.30
2017-12-15T03:49:27.887Z,4.13
2017-12-15T03:51:55.398Z,4.23
2017-12-15T03:54:22.894Z,4.47
2017-12-15T03:56:50.393Z,4.07
2017-12-15T03:59:17.882Z,5.00
2017-12-15T04:01:45.376Z,5.80
2017-12-15T04:04:12.853Z,5.30
2017-12-15T04:06:40.358Z,4.40
2017-12-15T04:09:07.846Z,4.10
2017-12-15T04:11:35.336Z,4.13
2017-12-15T04:14:02.829Z,3.87
2017-12-15T04:16:30.356Z,4.13
2017-12-15T04:18:57.844Z,4.27
2017-12-15T04:21:25.333Z,4.13
2017-12-15T04:23:52.817Z,4.70
2017-12-15T04:26:20.274Z,4.00
2017-12-15T04:28:47.751Z,4.07
2017-12-15T04:31:15.219Z,4.33
2017-12-15T04:33:42.716Z,4.43
2017-12-15T04:36:10.184Z,4.73
2017-12-15T04:38:37.676Z,4.57
2017-12-15T04:41:05.159Z,5.20
2017-12-15T04:43:32.684Z,5.13
2017-12-15T04:46:00.176Z,6.00
2017-12-15T04:48:27.672Z,7.37
2017-12-15T04:50:55.180Z,7.53
2017-12-15T04:53:22.660Z,7.83
2017-12-15T04:55:50.157Z,7.97
2017-12-15T04:58:17.672Z,8.83
2017-12-15T05:00:45.173Z,9.20
2017-12-15T05:03:12.665Z,10.37
2017-12-15T05:05:40.161Z,8.20
2017-12-15T05:08:07.650Z,9.13
2017-12-15T05:10:35.110Z,8.90
2017-12-15T05:13:02.580Z,11.10
2017-12-15T05:15:30.065Z,9.67
2017-12-15T05:17:57.538Z,9.33
2017-12-15T05:20:25.038Z,9.60
2017-12-15T05:22:52.541Z,10.07
2017-12-15T05:25:20.042Z,9.17
2017-12-15T05:27:48.055Z,9.30
2017-12-15T05:30:15.880Z,9.47
2017-12-15T05:32:43.594Z,9.53
2017-12-15T05:35:11.082Z,9.33
2017-12-15T05:37:38.582Z,9.20
2017-12-15T05:40:06.084Z,9.33
2017-12-15T05:42:33.587Z,10.10
2017-12-15T05:45:01.080Z,9.90
2017-12-15T05:47:29.235Z,9.27
2017-12-15T05:49:56.725Z,10.03
2017-12-15T05:52:24.294Z,9.83
2017-12-15T05:54:51.794Z,10.17
2017-12-15T05:57:19.290Z,10.13
2017-12-15T05:59:46.800Z,10.17
2017-12-15T06:02:14.293Z,10.30
2017-12-15T06:04:41.758Z,10.13
2017-12-15T06:07:09.271Z,10.77
2017-12-15T06:09:36.784Z,10.17
2017-12-15T06:12:04.258Z,10.67
2017-12-15T06:14:31.741Z,12.00
2017-12-15T06:16:59.264Z,10.50
2017-12-15T06:19:26.758Z,10.67
2017-12-15T06:21:54.522Z,10.90
2017-12-15T06:24:22.054Z,11.33
2017-12-15T06:26:49.538Z,11.80
2017-12-15T06:29:17.036Z,11.97
2017-12-15T06:31:44.526Z,11.97
2017-12-15T06:34:12.023Z,12.77
2017-12-15T06:36:39.516Z,12.30
2017-12-15T06:39:07.002Z,12.30
2017-12-15T06:41:34.516Z,12.63
2017-12-15T06:44:02.022Z,14.17
2017-12-15T06:46:29.512Z,14.17
2017-12-15T06:48:57.180Z,14.60
2017-12-15T06:51:24.673Z,15.90
2017-12-15T06:53:52.169Z,15.27
2017-12-15T06:56:19.676Z,15.27
2017-12-15T06:58:47.196Z,16.00
2017-12-15T07:01:14.674Z,16.57
2017-12-15T07:03:42.200Z,16.83
2017-12-15T07:06:09.709Z,17.03
2017-12-15T07:08:37.228Z,16.77
2017-12-15T07:11:05.778Z,16.47
2017-12-15T07:13:33.261Z,16.70
2017-12-15T07:16:00.757Z,17.07
2017-12-15T07:18:28.244Z,17.47
2017-12-15T07:20:55.742Z,16.47
2017-12-15T07:23:23.436Z,17.40
2017-12-15T07:25:50.928Z,18.37
2017-12-15T07:28:18.428Z,17.90
2017-12-15T07:30:46.417Z,18.20
2017-12-15T07:33:13.911Z,19.63
2017-12-15T07:35:41.419Z,17.77
2017-12-15T07:38:08.900Z,18.07
2017-12-15T07:40:36.388Z,18.23
2017-12-15T07:43:04.014Z,20.40
2017-12-15T07:45:31.596Z,19.60
2017-12-15T07:47:59.102Z,19.23
2017-12-15T07:50:26.617Z,19.03
2017-12-15T07:52:54.120Z,18.80
2017-12-15T07:55:21.615Z,19.30
2017-12-15T07:57:49.122Z,21.53
2017-12-15T08:00:16.616Z,20.37
2017-12-15T08:02:44.087Z,20.80
2017-12-15T08:05:11.574Z,21.07
2017-12-15T08:07:39.097Z,21.10
2017-12-15T08:10:06.609Z,22.90
2017-12-15T08:12:34.109Z,22.03
2017-12-15T08:15:01.595Z,21.73
2017-12-15T08:17:29.094Z,21.57
2017-12-15T08:19:56.600Z,21.97
2017-12-15T08:22:24.121Z,22.57
2017-12-15T08:24:51.608Z,24.47
2017-12-15T08:27:19.103Z,24.27
2017-12-15T08:29:46.596Z,25.57
2017-12-15T08:32:14.078Z,24.20
2017-12-15T08:34:41.610Z,23.80
2017-12-15T08:37:09.102Z,26.37
2017-12-15T08:39:36.587Z,24.03
2017-12-15T08:42:04.067Z,24.13
2017-12-15T08:44:31.686Z,23.70
2017-12-15T08:46:59.141Z,23.93
2017-12-15T08:49:26.628Z,22.30
2017-12-15T08:51:54.129Z,21.47
2017-12-15T08:54:21.712Z,20.47
2017-12-15T08:56:49.217Z,18.23
2017-12-15T08:59:16.712Z,18.87
2017-12-15T09:01:44.228Z,18.10
2017-12-15T09:04:17.315Z,16.83
2017-12-15T09:06:46.671Z,16.97
2017-12-15T09:09:14.152Z,17.30
2017-12-15T09:11:41.741Z,17.93
2017-12-15T09:14:09.229Z,17.40
2017-12-15T09:16:36.698Z,17.00
2017-12-15T09:19:04.193Z,17.03
2017-12-15T09:21:31.676Z,17.43
2017-12-15T09:23:59.177Z,18.47
2017-12-15T09:26:26.680Z,17.63
2017-12-15T09:28:54.226Z,17.57
2017-12-15T09:31:21.721Z,16.97
2017-12-15T09:33:49.205Z,17.40
2017-12-15T09:36:16.706Z,18.43
2017-12-15T09:38:44.197Z,18.27
2017-12-15T09:41:11.711Z,18.93
2017-12-15T09:43:39.196Z,19.33
2017-12-15T09:46:06.678Z,20.03
2017-12-15T09:48:34.198Z,18.50
2017-12-15T09:51:01.686Z,18.77
2017-12-15T09:53:29.200Z,19.03
2017-12-15T09:55:56.703Z,18.13
2017-12-15T09:58:24.194Z,19.17
2017-12-15T10:00:51.810Z,18.83
2017-12-15T10:03:19.300Z,18.20
2017-12-15T10:05:46.820Z,18.17
2017-12-15T10:08:14.304Z,15.00
2017-12-15T10:10:41.978Z,16.37
2017-12-15T10:13:09.477Z,16.67
2017-12-15T10:15:36.970Z,16.33
2017-12-15T10:18:04.442Z,16.80
2017-12-15T10:20:31.952Z,18.67
2017-12-15T10:22:59.549Z,16.63
2017-12-15T10:25:27.046Z,16.23
2017-12-15T10:27:54.552Z,17.80
2017-12-15T10:30:22.049Z,17.07
2017-12-15T10:32:49.520Z,18.47
2017-12-15T10:35:17.017Z,17.10
2017-12-15T10:37:44.505Z,18.57
2017-12-15T10:40:12.016Z,18.50
2017-12-15T10:42:39.489Z,18.20
2017-12-15T10:45:06.982Z,18.57
2017-12-15T10:47:34.478Z,18.23
2017-12-15T10:50:02.006Z,18.13
2017-12-15T10:52:29.494Z,17.63
2017-12-15T10:54:56.976Z,17.20
2017-12-15T10:57:24.476Z,18.10
2017-12-15T10:59:52.037Z,17.70
2017-12-15T11:02:19.534Z,17.50
2017-12-15T11:04:47.017Z,18.33
2017-12-15T11:07:14.508Z,17.83
2017-12-15T11:09:42.007Z,17.97
2017-12-15T11:12:09.481Z,18.70
2017-12-15T11:14:36.990Z,19.37
2017-12-15T11:17:04.456Z,18.80
2017-12-15T11:19:31.941Z,19.93
2017-12-15T11:21:59.470Z,19.43
2017-12-15T11:24:26.951Z,21.07
2017-12-15T11:26:54.456Z,21.37
2017-12-15T11:29:21.953Z,19.37
2017-12-15T11:31:49.440Z,20.03
2017-12-15T11:34:16.936Z,22.33
2017-12-15T11:36:44.464Z,22.23
2017-12-15T11:39:11.961Z,20.90
2017-12-15T11:41:39.469Z,20.33
2017-12-15T11:44:06.980Z,20.50
2017-12-15T11:46:34.475Z,20.73
2017-12-15T11:49:01.964Z,21.43
2017-12-15T11:51:29.447Z,18.93
2017-12-15T11:53:56.942Z,18.67
2017-12-15T11:56:24.518Z,18.47
2017-12-15T11:58:51.985Z,20.17
2017-12-15T12:01:19.492Z,17.83
2017-12-15T12:03:46.985Z,16.27
2017-12-15T12:06:14.505Z,17.23
2017-12-15T12:08:42.087Z,15.17
2017-12-15T12:11:09.549Z,14.73
2017-12-15T12:13:37.024Z,13.80
2017-12-15T12:16:04.503Z,12.37
2017-12-15T12:18:31.981Z,11.37
2017-12-15T12:20:59.472Z,13.00
2017-12-15T12:23:26.946Z,13.57
2017-12-15T12:25:54.425Z,13.43
2017-12-15T12:28:21.903Z,13.17
2017-12-15T12:30:49.394Z,13.13
2017-12-15T12:33:16.852Z,12.20
2017-12-15T12:35:44.522Z,12.63
2017-12-15T12:38:12.143Z,11.90
2017-12-15T12:40:39.616Z,12.80
2017-12-15T12:43:07.105Z,11.83
2017-12-15T12:45:34.632Z,11.03
2017-12-15T12:48:02.110Z,11.10
2017-12-15T12:50:29.608Z,12.20
2017-12-15T12:52:59.322Z,11.93
2017-12-15T12:55:26.793Z,11.47
2017-12-15T12:57:55.134Z,9.80
2017-12-15T13:00:22.591Z,9.97
2017-12-15T13:02:50.090Z,9.73
2017-12-15T13:05:17.558Z,10.37
2017-12-15T13:07:45.038Z,9.10
2017-12-15T13:10:12.531Z,7.90
2017-12-15T13:12:40.128Z,9.30
2017-12-15T13:15:07.629Z,8.90
2017-12-15T13:17:35.105Z,9.40
2017-12-15T13:20:02.610Z,9.83
2017-12-15T13:22:30.218Z,7.67
2017-12-15T13:24:57.694Z,7.83
2017-12-15T13:27:25.217Z,7.17
2017-12-15T13:29:52.696Z,7.67
2017-12-15T13:32:20.214Z,7.80
2017-12-15T13:34:47.772Z,7.37
2017-12-15T13:37:15.243Z,6.83
2017-12-15T13:39:42.882Z,7.87
2017-12-15T13:42:12.256Z,6.90
2017-12-15T13:44:39.755Z,7.13
2017-12-15T13:47:07.248Z,5.80
2017-12-15T13:49:34.713Z,5.77
2017-12-15T13:52:02.194Z,6.07
2017-12-15T13:54:29.722Z,6.37
2017-12-15T13:56:57.254Z,5.90
2017-12-15T13:59:24.736Z,5.63
2017-12-15T14:01:53.129Z,5.37
2017-12-15T14:04:20.641Z,5.63
2017-12-15T14:06:48.131Z,6.33
2017-12-15T14:09:16.310Z,5.97
2017-12-15T14:11:43.790Z,5.73
2017-12-15T14:14:11.269Z,6.20
2017-12-15T14:16:38.793Z,5.67
2017-12-15T14:19:06.278Z,6.10
2017-12-15T14:21:33.766Z,5.83
2017-12-15T14:24:01.253Z,5.77
2017-12-15T14:26:28.782Z,6.63
2017-12-15T14:28:56.272Z,6.03
2017-12-15T14:31:23.762Z,6.20
2017-12-15T14:33:52.233Z,6.70
2017-12-15T14:36:19.721Z,7.03
2017-12-15T14:38:48.671Z,6.67
2017-12-15T14:41:16.239Z,7.00
2017-12-15T14:43:43.685Z,7.60
2017-12-15T14:46:11.529Z,7.37
2017-12-15T14:48:43.876Z,7.83
2017-12-15T14:51:06.546Z,7.50
2017-12-15T14:53:34.089Z,7.93
2017-12-15T14:56:01.569Z,7.43
2017-12-15T14:58:33.733Z,7.50
2017-12-15T15:01:01.241Z,8.00
2017-12-15T15:03:29.134Z,7.60
2017-12-15T15:05:56.617Z,7.77
2017-12-15T15:08:24.135Z,7.73
2017-12-15T15:10:51.652Z,8.37
2017-12-15T15:13:19.125Z,7.60
2017-12-15T15:15:46.647Z,7.73
2017-12-15T15:18:14.347Z,7.27
2017-12-15T15:33:36.873Z,8.17
2017-12-15T15:36:04.413Z,8.07
2017-12-15T15:38:31.951Z,8.47
2017-12-15T15:40:59.500Z,7.53
2017-12-15T15:43:27.011Z,7.93
2017-12-15T15:45:54.530Z,7.93
2017-12-15T15:48:22.004Z,8.20
2017-12-15T15:50:49.478Z,8.43
2017-12-15T15:53:17.520Z,9.07
2017-12-15T15:55:45.374Z,8.47
2017-12-15T15:58:12.836Z,9.03
2017-12-15T16:00:40.395Z,8.03
2017-12-15T16:03:08.162Z,8.37
2017-12-15T16:05:35.689Z,9.40
2017-12-15T16:08:03.241Z,8.60
2017-12-15T16:10:31.010Z,8.70
2017-12-15T16:12:58.774Z,9.40
2017-12-15T16:15:26.333Z,8.67
2017-12-15T16:17:53.914Z,10.50
2017-12-15T16:20:21.482Z,9.63
2017-12-15T16:22:48.970Z,9.67
2017-12-15T16:25:16.473Z,9.43
2017-12-15T16:27:44.164Z,10.73
2017-12-15T16:30:11.986Z,11.80
2017-12-15T16:32:39.701Z,11.77
2017-12-15T16:35:07.474Z,11.60
2017-12-15T16:37:34.984Z,11.20
2017-12-15T16:40:02.459Z,10.10
2017-12-15T16:42:30.043Z,10.23
2017-12-15T16:44:57.550Z,9.83
2017-12-15T16:47:25.874Z,9.47
2017-12-15T16:49:53.367Z,10.23
2017-12-15T16:52:20.852Z,10.37
2017-12-15T16:54:48.330Z,9.97
2017-12-15T16:57:15.805Z,10.13
2017-12-15T16:59:43.305Z,10.00
2017-12-15T17:02:10.788Z,10.37
2017-12-15T17:04:38.276Z,10.13
2017-12-15T17:07:05.787Z,9.50
2017-12-15T17:09:33.273Z,8.93
2017-12-15T17:12:00.757Z,9.07
2017-12-15T17:14:28.247Z,10.57
2017-12-15T17:16:55.737Z,10.97
2017-12-15T17:19:23.269Z,10.97
2017-12-15T17:21:50.828Z,11.33
2017-12-15T17:24:18.318Z,11.77
2017-12-15T17:26:45.804Z,13.17
2017-12-15T17:29:13.666Z,14.83
2017-12-15T17:31:41.161Z,13.33
2017-12-15T17:34:08.664Z,14.33
2017-12-15T17:36:36.152Z,14.50
2017-12-15T17:39:03.635Z,14.13
2017-12-15T17:41:31.120Z,15.57
2017-12-15T17:43:58.606Z,13.87
2017-12-15T17:46:26.104Z,13.67
2017-12-15T17:48:54.260Z,13.40
2017-12-15T17:51:21.737Z,13.37
2017-12-15T17:53:49.224Z,13.90
2017-12-15T17:56:16.715Z,13.73
2017-12-15T17:58:44.201Z,14.83
2017-12-15T18:01:11.686Z,13.83
2017-12-15T18:03:39.166Z,13.83
2017-12-15T18:06:06.650Z,14.83
2017-12-15T18:08:34.110Z,16.30
2017-12-15T18:11:01.599Z,16.30
2017-12-15T18:13:29.077Z,15.43
2017-12-15T18:15:56.546Z,15.77
2017-12-15T18:18:24.076Z,16.20
2017-12-15T18:20:51.566Z,14.77
2017-12-15T18:23:19.058Z,15.80
2017-12-15T18:25:46.552Z,13.77
2017-12-15T18:28:14.027Z,14.23
2017-12-15T18:30:41.501Z,13.57
2017-12-15T18:33:08.999Z,14.13
2017-12-15T18:35:36.492Z,14.80
2017-12-15T18:38:03.973Z,16.50
2017-12-15T18:40:31.554Z,17.33
2017-12-15T18:42:59.902Z,15.83
2017-12-15T18:45:27.392Z,14.90
2017-12-15T18:47:54.890Z,14.20
2017-12-15T18:50:22.398Z,13.97
2017-12-15T18:52:49.884Z,14.50
2017-12-15T18:55:17.359Z,14.10
2017-12-15T18:57:44.860Z,13.20
2017-12-15T19:00:12.358Z,13.80
2017-12-15T19:02:39.846Z,14.23
2017-12-15T19:05:07.342Z,14.67
2017-12-15T19:07:34.837Z,13.60
2017-12-15T19:10:02.306Z,13.77
2017-12-15T19:12:29.818Z,12.37
2017-12-15T19:14:57.268Z,10.93
2017-12-15T19:17:24.758Z,13.27
2017-12-15T19:19:52.236Z,14.57
2017-12-15T19:22:19.718Z,11.60
2017-12-15T19:24:47.675Z,10.30
2017-12-15T19:27:15.229Z,11.37
2017-12-15T19:29:42.794Z,11.03
2017-12-15T19:32:10.301Z,11.03
2017-12-15T19:34:37.809Z,11.13
2017-12-15T19:37:05.291Z,11.57
2017-12-15T19:39:32.867Z,12.87
2017-12-15T19:42:00.396Z,12.70
2017-12-15T19:44:27.932Z,13.47
2017-12-15T19:46:55.509Z,12.80
2017-12-15T19:49:23.011Z,12.90
2017-12-15T19:51:50.517Z,12.83
2017-12-15T19:54:18.008Z,13.10
2017-12-15T19:56:46.361Z,12.10
2017-12-15T19:59:14.311Z,12.30
2017-12-15T20:01:53.031Z,12.90
2017-12-15T20:04:20.510Z,11.90
2017-12-15T20:06:48.086Z,12.73
2017-12-15T20:09:15.593Z,11.60
2017-12-15T20:11:43.065Z,11.87
2017-12-15T20:14:10.570Z,13.07
2017-12-15T20:16:38.091Z,13.27
2017-12-15T20:19:07.563Z,13.87
2017-12-15T20:21:35.045Z,13.50
2017-12-15T20:24:02.606Z,13.40
2017-12-15T20:26:30.078Z,13.43
2017-12-15T20:28:57.949Z,14.60
2017-12-15T20:31:25.838Z,14.60
2017-12-15T20:33:53.736Z,16.27
2017-12-15T20:36:21.567Z,14.57
2017-12-15T20:38:49.337Z,16.37
2017-12-15T20:41:17.081Z,15.20
2017-12-15T20:43:44.891Z,19.97
2017-12-15T20:46:12.394Z,17.37
2017-12-15T20:48:39.870Z,19.47
2017-12-15T20:51:07.342Z,19.83
2017-12-15T20:53:34.942Z,18.17
2017-12-15T20:56:02.377Z,16.37
2017-12-15T20:58:29.880Z,16.53
2017-12-15T21:00:57.366Z,16.03
2017-12-15T21:03:24.852Z,15.47
2017-12-15T21:05:52.381Z,15.67
2017-12-15T21:08:20.693Z,15.03
2017-12-15T21:10:48.169Z,15.47
2017-12-15T21:13:15.668Z,15.70
2017-12-15T21:15:43.165Z,16.83
2017-12-15T21:18:10.724Z,15.10
2017-12-15T21:20:39.006Z,16.57
2017-12-15T21:23:06.497Z,17.63
2017-12-15T21:25:33.969Z,15.70
2017-12-15T21:28:02.173Z,18.13
2017-12-15T21:30:29.694Z,18.47
2017-12-15T21:32:57.216Z,16.57
2017-12-15T21:35:24.694Z,17.20
2017-12-15T21:37:52.192Z,16.90
2017-12-15T21:40:19.692Z,16.63
2017-12-15T21:42:47.214Z,17.17
2017-12-15T21:45:14.718Z,17.90
2017-12-15T21:47:42.234Z,16.93
2017-12-15T21:50:09.737Z,17.97
2017-12-15T21:52:37.276Z,15.83
2017-12-15T21:55:04.766Z,16.73
2017-12-15T21:57:32.312Z,16.27
2017-12-15T21:59:59.802Z,17.40
2017-12-15T22:02:27.286Z,17.70
2017-12-15T22:04:54.783Z,15.50
2017-12-15T22:07:26.142Z,17.43
2017-12-15T22:09:53.897Z,16.37
2017-12-15T22:12:21.402Z,17.53
2017-12-15T22:14:48.906Z,16.53
2017-12-15T22:17:16.426Z,17.03
2017-12-15T22:19:43.920Z,18.10
2017-12-15T22:22:11.448Z,17.93
2017-12-15T22:24:38.980Z,17.63
2017-12-15T22:27:06.488Z,17.97
2017-12-15T22:29:34.063Z,16.97
2017-12-15T22:32:01.566Z,16.77
2017-12-15T22:34:29.133Z,17.50
2017-12-15T22:36:56.642Z,18.23
2017-12-15T22:39:24.142Z,17.53
2017-12-15T22:41:51.673Z,19.13
2017-12-15T22:44:19.158Z,17.37
2017-12-15T22:46:46.671Z,18.57
2017-12-15T22:49:14.176Z,17.27
2017-12-15T22:51:41.650Z,18.50
2017-12-15T22:54:09.198Z,16.60
2017-12-15T22:56:36.705Z,17.33
2017-12-15T22:59:04.217Z,17.80
2017-12-15T23:01:31.711Z,18.10
2017-12-15T23:03:59.262Z,16.70
2017-12-15T23:06:26.786Z,16.87
2017-12-15T23:08:54.282Z,17.57
2017-12-15T23:11:21.766Z,17.30
2017-12-15T23:13:50.059Z,16.77
2017-12-15T23:16:17.787Z,16.60
2017-12-15T23:18:45.284Z,18.20
2017-12-15T23:21:12.764Z,16.77
2017-12-15T23:23:40.226Z,15.80
2017-12-15T23:26:07.733Z,17.80
2017-12-15T23:28:35.220Z,17.10
2017-12-15T23:31:02.700Z,16.63
2017-12-15T23:33:30.178Z,15.70
2017-12-15T23:35:57.708Z,17.17
2017-12-15T23:38:25.214Z,16.20
2017-12-15T23:40:52.709Z,17.17
2017-12-15T23:43:20.209Z,17.43
2017-12-15T23:45:47.732Z,16.77
2017-12-15T23:48:15.239Z,17.00
2017-12-15T23:50:42.745Z,16.37
2017-12-15T23:53:10.259Z,17.20
2017-12-15T23:55:49.551Z,15.73
2017-12-15T23:58:17.027Z,16.40
